Airfield :
LOGIN :

Register | Disclaimer

   EN    FR    IT 

 










Legend :    VFR   Marginal VFR   IFR   Intensive IFR   Very Intensive IFR
Visi :
Ceiling :
>= 8 km
>= 3000ft
5 to 8 km
1000 to 3000 ft
1500m to 5 km
500 to 1000 ft
800 to 1500m
200 to 500 ft
< 800m
< 200 ft
Symbols :   Thunderstorms  Fog  Heavy snow  Heavy precipitations  Wind > 20 kt
SIGMETs :     Misc.  Thunderstorms  Icing  Turbulence  Mountain Waves  Volcanic Ashes






- Airport Elevation : 1455 ft


ETIH - Hohenfels Army Air Field

CURRENT METAR :
  • 271956Z AUTO 00000KT 1000 BR VV001 M02/M04 A3016 RMK AO2 SLP244 T10241037 RVRNO $

EXPIRED METARs :
  • 271856Z AUTO 00000KT 0800 FZFG VV001 M02/M04 A3016 RMK AO2 SLP244 T10231036 RVRNO $
  • 271801Z AUTO 09004KT 1200 BR VV002 M02/M03 A3015 RMK AO2 SLP241 RVRNO $
  • 271756Z AUTO 00000KT 1600 BR VV001 M02/M03 A3015 RMK AO2 SLP241 T10211034 11010 21022 53000 RVRNO $
  • 271751Z AUTO 00000KT 1600 BR VV001 M02/M03 A3015 RMK AO2 SLP241 RVRNO $

Expired Forecast.



MET'MAP, your aeronautical weather chart ! - Copyright ORBIFLY December 2007 - Disclaimer

ORBIFLY MET'MAP TEAM :

Programming & Development : Alexandra Zaïnal
Concept & original design : Baudouin d'Aumeries
Assistance for programming : Marc-Olivier Méhu
Technical & hardware support : Manuel Goepfert

Contact : metmap@orbifly.com




SOURCES & CREDITS :

   NOAA